createdAt,value
2018-07-04T00:01:47.016Z,22.80
2018-07-04T00:04:26.132Z,22.80
2018-07-04T00:07:04.999Z,22.80
2018-07-04T00:09:44.082Z,22.80
2018-07-04T00:12:22.999Z,22.80
2018-07-04T00:15:02.119Z,22.80
2018-07-04T00:17:41.975Z,22.80
2018-07-04T00:20:25.736Z,22.70
2018-07-04T00:23:04.859Z,22.70
2018-07-04T00:25:44.125Z,22.70
2018-07-04T00:28:23.299Z,22.70
2018-07-04T00:31:02.364Z,22.70
2018-07-04T00:33:41.343Z,22.70
2018-07-04T00:36:21.293Z,22.60
2018-07-04T00:39:00.276Z,22.60
2018-07-04T00:41:39.252Z,22.60
2018-07-04T00:44:18.248Z,22.60
2018-07-04T00:46:57.342Z,22.50
2018-07-04T00:49:36.481Z,22.50
2018-07-04T00:52:16.248Z,22.50
2018-07-04T00:54:55.336Z,22.40
2018-07-04T00:57:34.368Z,22.40
2018-07-04T01:00:13.459Z,22.30
2018-07-04T01:02:52.488Z,22.30
2018-07-04T01:05:31.556Z,22.30
2018-07-04T01:08:10.640Z,22.30
2018-07-04T01:10:51.972Z,22.30
2018-07-04T01:13:31.123Z,22.30
2018-07-04T01:16:10.108Z,22.30
2018-07-04T01:18:50.516Z,22.30
2018-07-04T01:21:29.567Z,22.30
2018-07-04T01:24:08.624Z,22.30
2018-07-04T01:26:47.579Z,22.30
2018-07-04T01:29:26.877Z,22.30
2018-07-04T01:32:05.841Z,22.30
2018-07-04T01:34:45.117Z,22.20
2018-07-04T01:37:24.166Z,22.20
2018-07-04T01:40:03.319Z,22.20
2018-07-04T01:42:45.408Z,22.10
2018-07-04T01:45:24.623Z,22.20
2018-07-04T01:48:03.448Z,22.10
2018-07-04T01:50:42.492Z,22.10
2018-07-04T01:53:21.447Z,22.00
2018-07-04T01:56:00.449Z,22.00
2018-07-04T01:58:39.622Z,22.00
2018-07-04T02:01:18.870Z,21.90
2018-07-04T02:03:57.719Z,21.80
2018-07-04T02:06:36.737Z,21.80
2018-07-04T02:09:15.764Z,21.70
2018-07-04T02:11:54.661Z,21.70
2018-07-04T02:14:33.732Z,21.60
2018-07-04T02:17:13.158Z,21.50
2018-07-04T02:19:52.011Z,21.50
2018-07-04T02:22:30.779Z,21.40
2018-07-04T02:25:09.962Z,21.30
2018-07-04T02:27:49.052Z,21.30
2018-07-04T02:30:28.276Z,21.20
2018-07-04T02:33:07.398Z,21.10
2018-07-04T02:35:46.491Z,21.00
2018-07-04T02:38:25.579Z,20.90
2018-07-04T02:41:04.629Z,20.80
2018-07-04T02:43:43.591Z,20.70
2018-07-04T02:46:28.319Z,20.70
2018-07-04T02:49:08.383Z,20.60
2018-07-04T02:51:47.569Z,20.50
2018-07-04T02:54:26.551Z,20.40
2018-07-04T02:57:05.542Z,20.30
2018-07-04T02:59:44.604Z,20.30
2018-07-04T03:02:23.655Z,20.20
2018-07-04T03:05:02.534Z,20.10
2018-07-04T03:07:44.836Z,20.00
2018-07-04T03:10:23.869Z,20.00
2018-07-04T03:13:06.849Z,19.90
2018-07-04T03:18:19.213Z,19.90
2018-07-04T03:20:58.069Z,19.90
2018-07-04T03:23:37.288Z,19.90
2018-07-04T03:26:16.252Z,19.90
2018-07-04T03:28:55.338Z,19.90
2018-07-04T03:31:34.456Z,19.90
2018-07-04T03:34:13.448Z,19.80
2018-07-04T03:36:52.769Z,19.70
2018-07-04T03:39:31.749Z,19.60
2018-07-04T03:42:10.682Z,19.60
2018-07-04T03:44:50.318Z,19.60
2018-07-04T03:47:29.348Z,19.60
2018-07-04T03:50:08.794Z,19.60
2018-07-04T03:52:48.773Z,19.60
2018-07-04T03:55:27.681Z,19.60
2018-07-04T03:58:06.643Z,19.60
2018-07-04T04:00:45.752Z,19.60
2018-07-04T04:03:24.827Z,19.50
2018-07-04T04:06:03.829Z,19.50
2018-07-04T04:08:43.009Z,19.60
2018-07-04T04:11:22.105Z,19.60
2018-07-04T04:14:01.045Z,19.60
2018-07-04T04:16:40.793Z,19.80
2018-07-04T04:19:29.373Z,19.90
2018-07-04T04:22:08.397Z,20.10
2018-07-04T04:24:47.512Z,20.20
2018-07-04T04:27:26.693Z,20.30
2018-07-04T04:30:05.725Z,20.40
2018-07-04T04:32:44.863Z,20.50
2018-07-04T04:35:23.760Z,20.50
2018-07-04T04:38:02.645Z,20.60
2018-07-04T04:40:41.550Z,20.60
2018-07-04T04:43:20.641Z,20.70
2018-07-04T04:45:59.619Z,20.80
2018-07-04T04:48:38.511Z,20.80
2018-07-04T04:51:17.387Z,20.90
2018-07-04T04:53:56.421Z,21.00
2018-07-04T04:56:35.564Z,21.10
2018-07-04T05:01:47.849Z,21.40
2018-07-04T05:07:00.387Z,21.60
2018-07-04T05:09:39.364Z,21.60
2018-07-04T05:12:18.403Z,21.60
2018-07-04T05:14:57.874Z,21.80
2018-07-04T05:17:37.090Z,21.90
2018-07-04T05:20:16.149Z,22.10
2018-07-04T05:22:55.535Z,22.30
2018-07-04T05:25:35.136Z,22.40
2018-07-04T05:28:14.213Z,22.50
2018-07-04T05:30:53.683Z,22.60
2018-07-04T05:33:33.628Z,22.80
2018-07-04T05:36:12.507Z,23.00
2018-07-04T05:38:51.539Z,23.20
2018-07-04T05:41:30.704Z,23.40
2018-07-04T05:44:10.004Z,23.50
2018-07-04T05:46:49.132Z,23.70
2018-07-04T05:49:28.330Z,23.80
2018-07-04T05:52:07.538Z,23.90
2018-07-04T05:54:46.505Z,24.10
2018-07-04T05:59:58.722Z,24.50
2018-07-04T06:02:37.769Z,24.70
2018-07-04T06:05:16.755Z,24.90
2018-07-04T06:07:56.471Z,25.10
2018-07-04T06:10:35.654Z,25.20
2018-07-04T06:13:14.486Z,25.50
2018-07-04T06:15:53.564Z,25.80
2018-07-04T06:18:32.553Z,26.10
2018-07-04T06:21:11.697Z,26.30
2018-07-04T06:23:50.920Z,26.30
2018-07-04T06:26:29.846Z,26.40
2018-07-04T06:29:09.092Z,26.50
2018-07-04T06:31:48.067Z,26.70
2018-07-04T06:34:27.061Z,26.80
2018-07-04T06:37:05.977Z,27.00
2018-07-04T06:39:32.474Z,27.40
2018-07-04T06:41:58.955Z,27.80
2018-07-04T06:44:25.518Z,28.20
2018-07-04T06:46:52.124Z,28.50
2018-07-04T06:49:18.893Z,28.90
2018-07-04T06:51:45.776Z,29.00
2018-07-04T06:54:12.305Z,29.90
2018-07-04T06:56:38.810Z,32.80
2018-07-04T06:59:05.335Z,35.70
2018-07-04T07:01:31.803Z,38.80
2018-07-04T07:04:10.676Z,41.40
2018-07-04T07:06:49.627Z,43.10
2018-07-04T07:09:28.586Z,44.70
2018-07-04T07:12:07.521Z,45.60
2018-07-04T07:14:46.367Z,44.90
2018-07-04T07:17:25.380Z,44.90
2018-07-04T07:20:04.447Z,45.70
2018-07-04T07:22:43.530Z,46.40
2018-07-04T07:25:22.458Z,47.10
2018-07-04T07:28:01.534Z,47.70
2018-07-04T07:30:40.524Z,46.10
2018-07-04T07:33:19.524Z,43.10
2018-07-04T07:35:58.636Z,41.10
2018-07-04T07:38:37.527Z,39.30
2018-07-04T07:41:16.510Z,39.50
2018-07-04T07:43:55.476Z,40.40
2018-07-04T07:46:34.651Z,39.50
2018-07-04T07:51:46.782Z,42.80
2018-07-04T07:54:25.749Z,45.60
2018-07-04T07:57:04.670Z,48.60
2018-07-04T07:59:43.565Z,49.40
2018-07-04T08:02:22.580Z,50.40
2018-07-04T08:05:01.512Z,51.10
2018-07-04T08:07:44.083Z,49.90
2018-07-04T08:10:24.437Z,49.80
2018-07-04T08:13:03.756Z,50.60
2018-07-04T08:15:42.647Z,51.40
2018-07-04T08:18:21.684Z,50.60
2018-07-04T08:21:00.691Z,48.40
2018-07-04T08:23:39.768Z,45.60
2018-07-04T08:26:18.591Z,43.30
2018-07-04T08:28:57.889Z,44.10
2018-07-04T08:31:36.823Z,44.20
2018-07-04T08:34:15.876Z,44.50
2018-07-04T08:36:54.892Z,46.50
2018-07-04T08:39:33.793Z,47.10
2018-07-04T08:42:12.899Z,45.30
2018-07-04T08:44:51.891Z,43.00
2018-07-04T08:47:32.591Z,40.90
2018-07-04T08:50:11.615Z,39.30
2018-07-04T08:52:50.575Z,38.00
2018-07-04T08:55:29.812Z,36.90
2018-07-04T08:58:09.791Z,36.30
2018-07-04T09:00:48.989Z,35.70
2018-07-04T09:03:27.960Z,35.50
2018-07-04T09:06:07.334Z,35.20
2018-07-04T09:08:46.439Z,34.90
2018-07-04T09:11:25.403Z,34.70
2018-07-04T09:14:08.047Z,34.80
2018-07-04T09:16:47.089Z,37.10
2018-07-04T09:19:26.190Z,40.10
2018-07-04T09:22:05.265Z,41.60
2018-07-04T09:24:44.131Z,42.70
2018-07-04T09:27:22.993Z,42.10
2018-07-04T09:30:02.263Z,40.80
2018-07-04T09:32:41.137Z,38.90
2018-07-04T09:35:20.127Z,37.20
2018-07-04T09:37:59.190Z,36.10
2018-07-04T09:40:38.192Z,35.60
2018-07-04T09:43:17.221Z,34.90
2018-07-04T09:45:56.182Z,34.20
2018-07-04T09:48:35.303Z,33.70
2018-07-04T09:51:14.317Z,33.70
2018-07-04T09:53:53.105Z,34.30
2018-07-04T09:56:32.039Z,34.40
2018-07-04T09:59:10.878Z,33.80
2018-07-04T10:01:49.975Z,33.30
2018-07-04T10:04:28.767Z,33.10
2018-07-04T10:07:09.719Z,33.20
2018-07-04T10:09:48.639Z,33.10
2018-07-04T10:12:27.813Z,33.10
2018-07-04T10:15:06.802Z,34.50
2018-07-04T10:17:47.083Z,34.50
2018-07-04T10:20:26.075Z,34.60
2018-07-04T10:23:05.021Z,35.10
2018-07-04T10:25:43.956Z,38.10
2018-07-04T10:28:22.813Z,41.80
2018-07-04T10:31:01.840Z,44.70
2018-07-04T10:33:40.879Z,45.80
2018-07-04T10:36:19.879Z,47.00
2018-07-04T10:38:58.620Z,48.20
2018-07-04T10:41:37.571Z,49.00
2018-07-04T10:44:16.623Z,47.50
2018-07-04T10:46:55.711Z,45.90
2018-07-04T10:49:35.467Z,44.50
2018-07-04T10:52:14.497Z,43.10
2018-07-04T10:54:53.934Z,42.20
2018-07-04T10:57:33.191Z,40.40
2018-07-04T11:00:12.242Z,39.50
2018-07-04T11:05:26.148Z,37.30
2018-07-04T11:08:05.073Z,36.70
2018-07-04T11:10:44.091Z,36.10
2018-07-04T11:15:56.555Z,35.30
2018-07-04T11:18:35.624Z,35.10
2018-07-04T11:21:14.643Z,35.00
2018-07-04T11:23:53.733Z,34.80
2018-07-04T11:26:32.811Z,34.50
2018-07-04T11:31:44.971Z,34.50
2018-07-04T11:34:24.145Z,34.10
2018-07-04T11:37:03.092Z,33.80
2018-07-04T11:39:41.988Z,33.90
2018-07-04T11:42:21.093Z,34.20
2018-07-04T11:45:00.143Z,34.20
2018-07-04T11:47:26.639Z,34.00
2018-07-04T11:49:53.125Z,33.80
2018-07-04T11:52:19.570Z,33.60
2018-07-04T11:54:46.820Z,33.60
2018-07-04T11:57:13.293Z,33.80
2018-07-04T11:59:39.786Z,33.80
2018-07-04T12:04:45.891Z,33.70
2018-07-04T12:07:12.354Z,34.00
2018-07-04T12:09:39.601Z,33.90
2018-07-04T12:12:06.255Z,34.00
2018-07-04T12:14:33.044Z,34.10
2018-07-04T12:17:01.025Z,34.20
2018-07-04T12:19:27.584Z,34.10
2018-07-04T12:21:54.207Z,34.20
2018-07-04T12:24:20.689Z,34.10
2018-07-04T12:26:47.249Z,34.00
2018-07-04T12:31:41.080Z,33.90
2018-07-04T12:34:07.571Z,33.80
2018-07-04T12:36:34.673Z,33.60
2018-07-04T12:39:01.178Z,33.50
2018-07-04T12:41:27.931Z,33.50
2018-07-04T12:43:54.772Z,33.60
2018-07-04T12:46:21.296Z,33.80
2018-07-04T12:48:47.769Z,33.80
2018-07-04T12:51:14.240Z,33.60
2018-07-04T12:53:40.729Z,33.30
2018-07-04T12:56:19.612Z,33.40
2018-07-04T12:58:58.610Z,33.10
2018-07-04T13:01:37.696Z,33.10
2018-07-04T13:04:16.704Z,33.10
2018-07-04T13:06:55.749Z,33.20
2018-07-04T13:09:34.919Z,33.10
2018-07-04T13:12:14.018Z,32.90
2018-07-04T13:14:52.873Z,32.80
2018-07-04T13:17:33.220Z,32.70
2018-07-04T13:20:12.338Z,32.60
2018-07-04T13:22:51.603Z,32.60
2018-07-04T13:28:03.659Z,32.60
2018-07-04T13:30:42.476Z,32.40
2018-07-04T13:33:21.290Z,32.50
2018-07-04T13:36:01.518Z,32.50
2018-07-04T13:38:40.486Z,32.40
2018-07-04T13:41:19.452Z,32.20
2018-07-04T13:43:58.552Z,32.10
2018-07-04T13:46:37.533Z,32.10
2018-07-04T13:49:16.529Z,32.20
2018-07-04T13:51:55.510Z,32.20
2018-07-04T13:54:34.535Z,32.10
2018-07-04T13:57:13.440Z,32.10
2018-07-04T13:59:52.488Z,32.20
2018-07-04T14:02:31.984Z,32.30
2018-07-04T14:05:11.105Z,32.20
2018-07-04T14:07:54.087Z,32.00
2018-07-04T14:10:33.360Z,32.00
2018-07-04T14:13:13.044Z,31.80
2018-07-04T14:15:52.262Z,31.80
2018-07-04T14:18:31.205Z,31.90
2018-07-04T14:21:10.507Z,32.00
2018-07-04T14:26:26.022Z,32.10
2018-07-04T14:29:04.948Z,32.20
2018-07-04T14:31:43.807Z,32.30
2018-07-04T14:34:22.769Z,32.40
2018-07-04T14:37:02.068Z,32.50
2018-07-04T14:39:40.976Z,32.40
2018-07-04T14:42:19.935Z,32.50
2018-07-04T14:44:58.736Z,32.40
2018-07-04T14:47:37.812Z,32.20
2018-07-04T14:50:16.739Z,32.10
2018-07-04T14:52:55.920Z,32.20
2018-07-04T14:55:34.781Z,32.30
2018-07-04T14:58:13.708Z,32.40
2018-07-04T15:00:52.674Z,32.50
2018-07-04T15:03:31.691Z,32.50
2018-07-04T15:06:10.727Z,32.40
2018-07-04T15:08:49.670Z,32.10
2018-07-04T15:11:28.559Z,32.00
2018-07-04T15:14:07.551Z,32.00
2018-07-04T15:16:46.523Z,32.10
2018-07-04T15:19:25.600Z,32.10
2018-07-04T15:22:04.740Z,32.00
2018-07-04T15:24:43.736Z,32.10
2018-07-04T15:27:22.919Z,31.90
2018-07-04T15:30:01.904Z,31.80
2018-07-04T15:32:40.804Z,31.90
2018-07-04T15:35:19.879Z,31.90
2018-07-04T15:37:58.982Z,31.90
2018-07-04T15:40:38.216Z,32.00
2018-07-04T15:43:17.017Z,31.90
2018-07-04T15:45:56.140Z,31.80
2018-07-04T15:48:35.195Z,31.70
2018-07-04T15:51:14.027Z,31.60
2018-07-04T15:53:53.166Z,31.50
2018-07-04T15:56:32.199Z,31.30
2018-07-04T15:59:11.245Z,31.30
2018-07-04T16:01:50.123Z,31.10
2018-07-04T16:04:28.907Z,31.10
2018-07-04T16:07:07.989Z,31.00
2018-07-04T16:09:46.885Z,31.00
2018-07-04T16:12:25.923Z,31.10
2018-07-04T16:15:04.928Z,31.10
2018-07-04T16:17:43.984Z,31.00
2018-07-04T16:20:22.974Z,31.00
2018-07-04T16:23:02.974Z,30.90
2018-07-04T16:25:42.124Z,30.90
2018-07-04T16:28:21.806Z,30.90
2018-07-04T16:31:00.909Z,30.80
2018-07-04T16:33:39.829Z,30.60
2018-07-04T16:36:18.691Z,30.60
2018-07-04T16:38:57.559Z,30.50
2018-07-04T16:41:36.474Z,30.50
2018-07-04T16:44:15.436Z,30.50
2018-07-04T16:46:54.414Z,30.40
2018-07-04T16:49:33.527Z,30.40
2018-07-04T16:52:12.480Z,30.40
2018-07-04T16:54:51.385Z,30.40
2018-07-04T16:57:30.379Z,30.30
2018-07-04T17:00:09.447Z,30.30
2018-07-04T17:02:52.113Z,30.30
2018-07-04T17:05:32.275Z,30.30
2018-07-04T17:08:11.252Z,30.30
2018-07-04T17:10:50.223Z,30.30
2018-07-04T17:13:29.295Z,30.20
2018-07-04T17:16:08.338Z,30.10
2018-07-04T17:18:47.547Z,30.00
2018-07-04T17:23:59.709Z,30.00
2018-07-04T17:26:38.911Z,30.00
2018-07-04T17:29:17.735Z,29.80
2018-07-04T17:31:56.672Z,29.80
2018-07-04T17:34:35.702Z,29.70
2018-07-04T17:37:14.780Z,29.60
2018-07-04T17:39:53.729Z,29.60
2018-07-04T17:42:32.633Z,29.40
2018-07-04T17:45:11.754Z,29.30
2018-07-04T17:47:52.347Z,29.20
2018-07-04T17:50:31.192Z,29.20
2018-07-04T17:53:09.985Z,29.10
2018-07-04T17:55:48.949Z,29.00
2018-07-04T17:58:28.291Z,28.90
2018-07-04T18:01:07.297Z,28.80
2018-07-04T18:03:46.358Z,28.80
2018-07-04T18:06:25.482Z,28.90
2018-07-04T18:09:04.714Z,28.90
2018-07-04T18:11:43.706Z,28.90
2018-07-04T18:14:22.956Z,28.90
2018-07-04T18:17:02.521Z,28.80
2018-07-04T18:19:41.649Z,28.80
2018-07-04T18:22:20.611Z,28.80
2018-07-04T18:24:59.818Z,28.80
2018-07-04T18:27:38.848Z,28.70
2018-07-04T18:30:17.977Z,28.70
2018-07-04T18:32:56.937Z,28.60
2018-07-04T18:35:36.199Z,28.50
2018-07-04T18:38:15.201Z,28.50
2018-07-04T18:40:54.074Z,28.40
2018-07-04T18:43:33.724Z,28.40
2018-07-04T18:46:12.633Z,28.30
2018-07-04T18:48:51.592Z,28.30
2018-07-04T18:54:03.753Z,28.10
2018-07-04T18:56:42.574Z,28.00
2018-07-04T18:59:21.546Z,28.00
2018-07-04T19:02:00.864Z,27.90
2018-07-04T19:04:40.536Z,27.80
2018-07-04T19:07:19.539Z,27.80
2018-07-04T19:09:58.458Z,27.70
2018-07-04T19:12:40.502Z,27.70
2018-07-04T19:15:19.682Z,27.60
2018-07-04T19:17:58.445Z,27.60
2018-07-04T19:20:37.512Z,27.50
2018-07-04T19:23:16.392Z,27.40
2018-07-04T19:25:55.417Z,27.40
2018-07-04T19:28:34.452Z,27.40
2018-07-04T19:31:13.388Z,27.30
2018-07-04T19:33:52.440Z,27.30
2018-07-04T19:36:31.497Z,27.20
2018-07-04T19:39:10.469Z,27.10
2018-07-04T19:41:50.355Z,27.10
2018-07-04T19:44:29.160Z,27.00
2018-07-04T19:47:08.100Z,27.00
2018-07-04T19:49:47.079Z,26.90
2018-07-04T19:52:25.953Z,26.80
2018-07-04T19:55:04.955Z,26.70
2018-07-04T19:57:44.124Z,26.70
2018-07-04T20:00:23.186Z,26.60
2018-07-04T20:03:02.397Z,26.60
2018-07-04T20:05:41.149Z,26.50
2018-07-04T20:08:20.044Z,26.40
2018-07-04T20:10:58.924Z,26.30
2018-07-04T20:13:39.185Z,26.30
2018-07-04T20:16:19.191Z,26.10
2018-07-04T20:19:01.672Z,26.20
2018-07-04T20:21:40.897Z,26.10
2018-07-04T20:24:20.027Z,26.00
2018-07-04T20:26:59.339Z,26.00
2018-07-04T20:29:38.305Z,26.00
2018-07-04T20:32:17.414Z,25.90
2018-07-04T20:34:56.348Z,25.90
2018-07-04T20:37:35.615Z,25.90
2018-07-04T20:42:47.864Z,25.80
2018-07-04T20:45:26.839Z,25.70
2018-07-04T20:48:05.936Z,25.70
2018-07-04T20:50:45.808Z,25.60
2018-07-04T20:53:24.893Z,25.60
2018-07-04T20:56:03.786Z,25.50
2018-07-04T20:58:42.798Z,25.50
2018-07-04T21:01:21.697Z,25.50
2018-07-04T21:04:00.623Z,25.50
2018-07-04T21:06:39.703Z,25.50
2018-07-04T21:09:18.488Z,25.50
2018-07-04T21:11:57.386Z,25.40
2018-07-04T21:14:36.415Z,25.40
2018-07-04T21:17:15.307Z,25.40
2018-07-04T21:19:54.292Z,25.30
2018-07-04T21:22:33.371Z,25.30
2018-07-04T21:25:12.233Z,25.30
2018-07-04T21:27:51.081Z,25.30
2018-07-04T21:30:30.032Z,25.20
2018-07-04T21:33:08.890Z,25.20
2018-07-04T21:35:47.800Z,25.20
2018-07-04T21:38:26.865Z,25.20
2018-07-04T21:41:06.138Z,25.20
2018-07-04T21:43:45.269Z,25.10
2018-07-04T21:46:24.376Z,25.10
2018-07-04T21:49:03.206Z,25.10
2018-07-04T21:51:42.091Z,25.10
2018-07-04T21:54:21.029Z,25.10
2018-07-04T21:56:59.995Z,25.00
2018-07-04T21:59:39.011Z,25.00
2018-07-04T22:02:17.998Z,24.90
2018-07-04T22:04:56.880Z,24.90
2018-07-04T22:07:35.954Z,24.90
2018-07-04T22:10:14.950Z,24.90
2018-07-04T22:12:56.531Z,24.80
2018-07-04T22:15:35.622Z,24.80
2018-07-04T22:18:14.705Z,24.80
2018-07-04T22:20:53.799Z,24.80
2018-07-04T22:23:32.680Z,24.80
2018-07-04T22:26:11.693Z,24.70
2018-07-04T22:28:50.867Z,24.70
2018-07-04T22:31:30.154Z,24.70
2018-07-04T22:34:09.176Z,24.60
2018-07-04T22:36:48.131Z,24.50
2018-07-04T22:39:26.995Z,24.50
2018-07-04T22:42:06.066Z,24.50
2018-07-04T22:44:46.296Z,24.50
2018-07-04T22:47:25.236Z,24.40
2018-07-04T22:50:04.331Z,24.40
2018-07-04T22:52:43.375Z,24.30
2018-07-04T22:55:22.183Z,24.30
2018-07-04T22:58:01.229Z,24.20
2018-07-04T23:00:40.156Z,24.20
2018-07-04T23:03:19.176Z,24.10
2018-07-04T23:05:58.150Z,24.10
2018-07-04T23:08:37.109Z,24.00
2018-07-04T23:11:16.079Z,24.00
2018-07-04T23:13:55.097Z,24.00
2018-07-04T23:16:34.000Z,23.80
2018-07-04T23:19:12.961Z,23.70
2018-07-04T23:21:52.015Z,23.50
2018-07-04T23:24:30.927Z,23.40
2018-07-04T23:27:09.900Z,23.30
2018-07-04T23:29:48.812Z,23.10
2018-07-04T23:32:27.804Z,23.10
2018-07-04T23:35:06.789Z,23.00
2018-07-04T23:37:45.748Z,22.90
2018-07-04T23:40:24.640Z,22.80
2018-07-04T23:43:04.791Z,22.70
2018-07-04T23:45:43.747Z,22.70
2018-07-04T23:48:22.765Z,22.60
2018-07-04T23:51:01.859Z,22.60
2018-07-04T23:53:40.766Z,22.60
2018-07-04T23:56:19.668Z,22.50
2018-07-04T23:58:58.698Z,22.50
